Time;durP1;ratioP1;P1;durP2;ratioP2;P2;SDS_P1;SDS_P2;PMS_P1;PMS_P2;Temp;Humidity;BMP_temperature;BMP_pressure;BME280_temperature;BME280_humidity;BME280_pressure;Samples;Min_cycle;Max_cycle;Signal;HPM_P1;HPM_P2
2022/05/25 00:02:04;;;;;;;;;1.00;1.00;;;;;17.44;49.41;100649.28;5095992;27;48420;-61
2022/05/25 00:04:29;;;;;;;;;2.67;2.67;;;;;17.41;49.61;100652.16;5097341;27;45579;-61
2022/05/25 00:06:54;;;;;;;;;3.00;2.00;;;;;17.39;49.56;100656.69;5097466;27;45501;-61
2022/05/25 00:09:20;;;;;;;;;1.00;1.00;;;;;17.37;49.77;100652.44;5097471;27;45547;-61
2022/05/25 00:11:46;;;;;;;;;1.00;1.00;;;;;17.34;49.90;100650.81;5095846;27;48363;-61
2022/05/25 00:14:11;;;;;;;;;2.67;2.67;;;;;17.27;50.49;100652.13;5097112;27;45469;-61
2022/05/25 00:16:37;;;;;;;;;2.00;2.00;;;;;17.26;50.36;100646.94;5097523;27;45477;-61
2022/05/25 00:21:47;;;;;;;;;2.00;2.00;;;;;17.24;49.83;100639.03;5097169;27;45769;-61
2022/05/25 00:24:12;;;;;;;;;2.33;1.00;;;;;17.19;50.30;100644.66;5097243;27;45492;-61
2022/05/25 00:26:37;;;;;;;;;2.67;2.67;;;;;17.17;50.03;100645.72;5096743;27;45605;-61
2022/05/25 00:29:04;;;;;;;;;1.00;1.00;;;;;17.12;50.60;100643.31;5097492;27;45492;-61
2022/05/25 00:31:30;;;;;;;;;1.00;1.00;;;;;17.10;50.63;100644.38;5097286;27;46326;-61
2022/05/25 00:33:56;;;;;;;;;1.00;1.00;;;;;17.09;50.04;100648.84;5097240;27;45354;-61
2022/05/25 00:36:22;;;;;;;;;0.67;0.67;;;;;17.06;50.69;100650.81;5097295;27;45533;-61
2022/05/25 00:38:47;;;;;;;;;1.00;1.00;;;;;17.09;50.30;100653.31;5097291;27;45410;-60
2022/05/25 00:41:13;;;;;;;;;1.67;1.67;;;;;17.08;50.55;100652.44;5097343;27;46319;-61
2022/05/25 00:43:38;;;;;;;;;1.67;1.67;;;;;17.08;50.43;100649.75;5097385;27;45366;-61
2022/05/25 00:46:10;;;;;;;;;1.00;1.00;;;;;17.10;50.32;100665.63;5097520;27;45569;-61
2022/05/25 00:48:43;;;;;;;;;1.33;1.33;;;;;17.10;50.81;100670.94;5097405;27;45308;-61
2022/05/25 00:51:12;;;;;;;;;1.00;1.00;;;;;17.14;50.31;100672.44;5097190;27;46450;-61
2022/05/25 00:53:40;;;;;;;;;1.00;1.00;;;;;17.12;50.61;100675.22;5097288;27;45440;-60
2022/05/25 00:56:08;;;;;;;;;2.00;1.00;;;;;17.11;50.18;100675.31;5097497;27;45413;-61
2022/05/25 00:58:36;;;;;;;;;1.00;1.00;;;;;17.07;50.64;100663.16;5097140;27;45452;-61
2022/05/25 01:01:01;;;;;;;;;1.00;1.00;;;;;17.09;50.62;100669.25;5097018;27;45338;-61
2022/05/25 01:03:27;;;;;;;;;1.00;1.00;;;;;17.05;49.99;100667.72;5097225;27;45485;-61
2022/05/25 01:06:01;;;;;;;;;1.00;1.00;;;;;17.04;50.39;100674.84;5097226;27;45335;-61
2022/05/25 01:09:06;;;;;;;;;1.00;1.00;;;;;17.03;50.07;100673.09;5095716;27;45415;-61
2022/05/25 01:11:44;;;;;;;;;1.00;1.00;;;;;17.06;50.68;100680.91;5084195;27;45465;-61
2022/05/25 01:14:34;;;;;;;;;2.00;2.00;;;;;17.07;51.29;100689.75;5096627;27;45594;-61
2022/05/25 01:17:31;;;;;;;;;0.67;0.00;;;;;16.98;50.41;100688.50;5097364;27;45480;-61
2022/05/25 01:20:15;;;;;;;;;0.00;0.00;;;;;16.98;50.85;100692.00;5095764;27;45514;-61
2022/05/25 01:22:47;;;;;;;;;1.00;1.00;;;;;16.98;50.44;100692.00;5096013;27;45532;-61
2022/05/25 01:25:34;;;;;;;;;0.00;0.00;;;;;16.96;50.78;100693.91;5094373;27;45486;-61
2022/05/25 01:28:08;;;;;;;;;0.00;0.00;;;;;16.94;50.59;100692.28;5096264;27;45465;-61
2022/05/25 01:30:39;;;;;;;;;1.33;0.00;;;;;16.91;51.34;100692.47;5096141;27;45429;-61
2022/05/25 01:33:20;;;;;;;;;0.00;0.00;;;;;16.90;51.75;100696.94;5095776;27;45595;-61
2022/05/25 01:36:18;;;;;;;;;0.00;0.00;;;;;16.89;51.07;100699.66;5095993;27;45529;-61
2022/05/25 01:38:50;;;;;;;;;0.00;0.00;;;;;16.86;51.50;100705.16;5093771;27;45509;-61
2022/05/25 01:41:23;;;;;;;;;1.00;1.00;;;;;16.82;51.82;100706.28;5096025;27;45466;-61
2022/05/25 01:43:51;;;;;;;;;0.00;0.00;;;;;16.77;52.04;100709.25;5095555;27;45478;-61
2022/05/25 01:46:21;;;;;;;;;0.33;0.33;;;;;16.75;51.88;100713.75;5095566;27;45449;-61
2022/05/25 01:48:48;;;;;;;;;0.00;0.00;;;;;16.75;52.31;100711.94;5096041;27;45453;-61
2022/05/25 01:51:23;;;;;;;;;0.00;0.00;;;;;16.73;52.19;100715.63;5095659;27;45481;-61
2022/05/25 01:53:54;;;;;;;;;0.00;0.00;;;;;16.72;52.48;100711.28;5095479;27;45505;-61
2022/05/25 01:56:23;;;;;;;;;1.00;1.00;;;;;16.75;52.11;100713.75;5095755;27;45448;-61
2022/05/25 01:58:56;;;;;;;;;1.67;0.67;;;;;16.75;52.32;100708.44;5095884;27;45499;-61
2022/05/25 02:01:21;;;;;;;;;2.00;2.00;;;;;16.77;51.64;100722.53;5095700;27;45429;-61
2022/05/25 02:07:04;;;;;;;;;0.00;0.00;;;;;16.71;52.28;100714.84;5095499;27;45423;-61
2022/05/25 02:09:32;;;;;;;;;0.67;0.67;;;;;16.70;52.67;100721.97;5095684;27;45461;-62
2022/05/25 02:12:32;;;;;;;;;1.33;1.00;;;;;16.64;52.58;100717.03;5095191;27;45454;-61
2022/05/25 02:15:23;;;;;;;;;0.00;0.00;;;;;16.65;52.58;100720.53;5094642;27;45765;-61
2022/05/25 02:18:17;;;;;;;;;1.00;1.00;;;;;16.64;53.07;100727.66;5095275;27;45434;-61
2022/05/25 02:20:49;;;;;;;;;0.67;0.00;;;;;16.65;52.61;100734.66;5095504;27;45444;-61
2022/05/25 02:23:46;;;;;;;;;0.67;0.67;;;;;16.67;52.86;100726.63;5095290;27;45572;-61
2022/05/25 02:26:16;;;;;;;;;0.00;0.00;;;;;16.70;53.08;100731.75;5095163;27;45408;-61
2022/05/25 02:29:04;;;;;;;;;1.00;1.00;;;;;16.60;52.69;100727.91;5095149;27;45390;-61
2022/05/25 02:31:36;;;;;;;;;1.00;1.00;;;;;16.63;52.69;100736.59;5095491;27;45393;-61
2022/05/25 02:34:04;;;;;;;;;2.00;1.00;;;;;16.66;52.64;100730.25;5095244;27;45425;-61
2022/05/25 02:36:34;;;;;;;;;1.00;1.00;;;;;16.67;52.24;100730.13;5095389;27;46430;-61
2022/05/25 02:39:03;;;;;;;;;0.67;0.67;;;;;16.70;52.65;100734.41;5094899;27;45408;-61
2022/05/25 02:41:34;;;;;;;;;0.00;0.00;;;;;16.70;51.99;100727.28;5095290;27;45435;-61
2022/05/25 02:44:02;;;;;;;;;1.00;1.00;;;;;16.72;52.00;100736.03;5095134;27;45568;-61
2022/05/25 02:46:27;;;;;;;;;0.00;0.00;;;;;16.71;51.90;100736.09;5094785;27;46143;-61
2022/05/25 02:48:53;;;;;;;;;0.67;0.67;;;;;16.68;52.40;100739.78;5094828;27;45494;-61
2022/05/25 02:51:18;;;;;;;;;0.00;0.00;;;;;16.63;51.81;100746.31;5095300;27;45419;-61
2022/05/25 02:53:44;;;;;;;;;0.33;0.33;;;;;16.63;51.99;100747.19;5095347;27;45568;-61
2022/05/25 02:56:10;;;;;;;;;0.00;0.00;;;;;16.51;52.81;100748.75;5095028;27;46290;-61
2022/05/25 02:58:35;;;;;;;;;0.00;0.00;;;;;16.52;52.62;100746.94;5095010;27;45379;-61
2022/05/25 03:01:01;;;;;;;;;0.33;0.33;;;;;16.51;52.78;100742.59;5095126;27;45450;-61
2022/05/25 03:03:28;;;;;;;;;1.00;1.00;;;;;16.55;52.75;100749.44;5095202;27;45620;-61
2022/05/25 03:05:54;;;;;;;;;1.00;1.00;;;;;16.53;52.38;100752.19;5093273;27;46215;-61
2022/05/25 03:08:19;;;;;;;;;1.00;1.00;;;;;16.41;53.09;100742.25;5094463;27;45445;-61
2022/05/25 03:10:44;;;;;;;;;0.67;0.67;;;;;16.50;53.25;100752.38;5093264;27;45385;-60
2022/05/25 03:13:11;;;;;;;;;0.67;0.67;;;;;16.50;52.97;100756.81;5094205;27;45592;-60
2022/05/25 03:15:37;;;;;;;;;1.00;1.00;;;;;16.50;52.85;100767.44;5094417;27;45609;-60
2022/05/25 03:18:03;;;;;;;;;1.00;1.00;;;;;16.44;52.82;100770.41;5094362;27;45473;-61
2022/05/25 03:20:29;;;;;;;;;1.00;1.00;;;;;16.43;53.02;100776.69;5094476;27;45497;-61
2022/05/25 03:22:55;;;;;;;;;1.00;1.00;;;;;16.38;53.25;100771.63;5094503;27;45421;-61
2022/05/25 03:25:20;;;;;;;;;2.33;1.00;;;;;16.37;53.55;100777.03;5094410;27;45410;-61
2022/05/25 03:27:46;;;;;;;;;1.67;1.67;;;;;16.35;53.38;100777.13;5094782;27;45384;-61
2022/05/25 03:30:13;;;;;;;;;1.00;1.00;;;;;16.32;53.48;100782.59;5094532;27;45418;-61
2022/05/25 03:32:39;;;;;;;;;2.00;2.00;;;;;16.31;53.24;100789.72;5094487;27;45407;-60
2022/05/25 03:35:06;;;;;;;;;0.67;0.67;;;;;16.29;53.07;100788.09;5094342;27;46143;-61
2022/05/25 03:37:32;;;;;;;;;2.00;2.00;;;;;16.29;54.16;100796.06;5094213;27;45428;-61
2022/05/25 03:39:58;;;;;;;;;1.00;1.00;;;;;16.27;54.43;100795.28;5093164;27;45398;-61
2022/05/25 03:42:23;;;;;;;;;2.00;2.00;;;;;16.28;53.73;100797.84;5094333;27;45575;-60
2022/05/25 03:44:49;;;;;;;;;2.00;2.00;;;;;16.26;54.02;100804.19;5094312;27;45513;-61
2022/05/25 03:47:16;;;;;;;;;2.00;1.00;;;;;16.22;54.21;100802.63;5094172;27;45433;-61
2022/05/25 03:49:42;;;;;;;;;2.00;2.00;;;;;16.18;54.24;100809.91;5094457;27;45388;-61
2022/05/25 03:52:07;;;;;;;;;2.00;2.00;;;;;16.21;54.56;100814.19;5092683;27;45355;-61
2022/05/25 03:54:34;;;;;;;;;2.00;2.00;;;;;16.21;53.68;100827.47;5094068;27;45514;-61
2022/05/25 03:57:00;;;;;;;;;1.00;1.00;;;;;16.17;54.49;100828.56;5094280;27;45693;-61
2022/05/25 03:59:25;;;;;;;;;3.00;3.00;;;;;16.10;53.91;100828.91;5094291;27;45498;-61
2022/05/25 04:01:51;;;;;;;;;2.00;2.00;;;;;16.08;54.16;100825.47;5096962;27;45474;-61
2022/05/25 04:04:17;;;;;;;;;1.00;1.00;;;;;16.03;55.26;100832.81;5097459;27;46426;-61
2022/05/25 04:06:42;;;;;;;;;1.00;1.00;;;;;16.01;55.38;100833.84;5097504;27;45364;-61
2022/05/25 04:09:10;;;;;;;;;3.00;2.00;;;;;15.93;55.24;100828.94;5097562;27;45427;-61
2022/05/25 04:11:36;;;;;;;;;3.00;2.00;;;;;15.83;54.88;100825.97;5097362;27;45601;-61
2022/05/25 04:14:02;;;;;;;;;3.00;3.00;;;;;15.89;54.44;100830.94;5097174;27;46656;-61
2022/05/25 04:16:27;;;;;;;;;3.00;3.00;;;;;15.92;54.41;100832.56;5097322;27;45362;-61
2022/05/25 04:18:53;;;;;;;;;2.00;2.00;;;;;15.97;54.69;100827.88;5097192;27;45469;-61
2022/05/25 04:21:18;;;;;;;;;7.67;5.33;;;;;15.98;54.76;100828.72;5097502;27;45398;-61
2022/05/25 04:23:44;;;;;;;;;5.00;4.00;;;;;16.02;54.63;100830.28;5097350;27;45478;-61
2022/05/25 04:26:09;;;;;;;;;4.00;3.00;;;;;16.04;54.74;100834.56;5096186;27;45544;-61
2022/05/25 04:28:35;;;;;;;;;2.67;2.00;;;;;16.08;54.71;100838.75;5098064;27;45364;-61
2022/05/25 04:31:01;;;;;;;;;4.67;4.00;;;;;16.09;54.47;100837.81;5098007;27;45487;-61
2022/05/25 04:33:29;;;;;;;;;3.33;3.33;;;;;16.06;55.18;100839.75;5097206;27;45501;-61
2022/05/25 04:35:56;;;;;;;;;2.00;2.00;;;;;16.09;54.94;100845.78;5097672;27;45507;-61
2022/05/25 04:38:21;;;;;;;;;2.00;2.00;;;;;16.10;54.54;100851.94;5097593;27;45476;-62
2022/05/25 04:40:47;;;;;;;;;3.00;2.67;;;;;16.10;54.92;100849.28;5097740;27;45639;-61
2022/05/25 04:43:15;;;;;;;;;4.33;3.33;;;;;16.09;54.18;100859.06;5096110;27;46180;-62
2022/05/25 04:45:43;;;;;;;;;2.00;2.00;;;;;16.06;54.40;100853.03;5097272;27;45561;-60
2022/05/25 04:48:08;;;;;;;;;3.67;3.00;;;;;16.06;54.92;100861.84;5097630;27;45404;-61
2022/05/25 04:50:40;;;;;;;;;3.00;3.00;;;;;16.10;54.45;100870.50;5097334;27;45561;-61
2022/05/25 04:53:07;;;;;;;;;3.00;3.00;;;;;16.09;54.43;100867.00;5097343;27;45671;-62
2022/05/25 04:58:26;;;;;;;;;3.33;3.33;;;;;16.18;54.47;100870.09;5097035;27;45474;-66
2022/05/25 05:00:52;;;;;;;;;4.00;4.00;;;;;16.19;54.37;100874.47;5095622;27;45445;-66
2022/05/25 05:03:19;;;;;;;;;6.00;4.00;;;;;16.18;54.08;100884.22;5097055;27;45403;-64
2022/05/25 05:05:45;;;;;;;;;5.00;4.67;;;;;16.13;54.33;100884.47;5096751;27;45426;-66
2022/05/25 05:08:11;;;;;;;;;4.33;4.33;;;;;16.09;54.87;100887.34;5097100;27;45415;-65
2022/05/25 05:10:37;;;;;;;;;3.00;3.00;;;;;16.05;55.12;100883.16;5097380;27;45354;-65
2022/05/25 05:13:04;;;;;;;;;4.00;4.00;;;;;16.00;54.36;100879.91;5096396;27;46187;-65
2022/05/25 05:15:32;;;;;;;;;4.00;4.00;;;;;16.03;54.94;100885.03;5096731;27;45390;-64
2022/05/25 05:17:58;;;;;;;;;5.00;5.00;;;;;16.06;53.97;100890.19;5096899;27;45495;-64
2022/05/25 05:20:23;;;;;;;;;4.67;4.67;;;;;16.11;54.62;100894.28;5097193;27;45516;-62
2022/05/25 05:22:49;;;;;;;;;3.67;3.67;;;;;16.09;55.11;100892.66;5096695;27;46143;-62
2022/05/25 05:25:14;;;;;;;;;5.00;5.00;;;;;16.09;55.35;100904.16;5096916;27;45497;-62
2022/05/25 05:27:39;;;;;;;;;4.67;4.67;;;;;16.01;55.44;100898.41;5096956;27;45415;-62
2022/05/25 05:30:07;;;;;;;;;6.33;6.33;;;;;16.07;54.43;100903.38;5096873;27;45486;-62
2022/05/25 05:32:32;;;;;;;;;0.00;0.00;;;;;16.03;54.71;100904.47;5096676;27;46159;-62
2022/05/25 05:34:58;;;;;;;;;5.00;5.00;;;;;16.05;54.86;100901.75;5096383;27;45411;-62
2022/05/25 05:37:36;;;;;;;;;5.00;5.00;;;;;16.03;54.75;100896.50;5096565;27;45498;-62
2022/05/25 05:40:05;;;;;;;;;11.00;11.00;;;;;16.03;54.47;100900.97;5096850;27;45452;-60
2022/05/25 05:42:33;;;;;;;;;7.33;7.00;;;;;16.00;54.67;100890.50;5096204;27;46999;-62
2022/05/25 05:45:04;;;;;;;;;6.00;6.00;;;;;16.06;55.07;100892.81;5096716;27;45469;-61
2022/05/25 05:47:59;;;;;;;;;2.67;2.67;;;;;16.03;54.96;100895.66;5096315;27;45399;-62
2022/05/25 05:50:27;;;;;;;;;5.33;5.33;;;;;16.06;54.26;100885.72;5094613;27;45517;-64
2022/05/25 05:52:53;;;;;;;;;6.00;4.67;;;;;16.08;54.09;100890.97;5095807;27;45455;-63
2022/05/25 05:55:19;;;;;;;;;7.00;7.00;;;;;16.12;54.11;100893.38;5096310;27;45443;-62
2022/05/25 05:57:45;;;;;;;;;3.00;3.00;;;;;16.15;53.42;100892.34;5096020;27;45309;-62
2022/05/25 06:00:13;;;;;;;;;4.00;2.67;;;;;16.20;53.32;100892.09;5096041;27;45658;-64
2022/05/25 06:02:38;;;;;;;;;5.00;3.00;;;;;16.22;53.49;100892.88;5095890;27;45503;-63
2022/05/25 06:05:04;;;;;;;;;4.00;3.67;;;;;16.26;53.12;100899.72;5096146;27;45419;-65
2022/05/25 06:07:29;;;;;;;;;4.67;4.00;;;;;16.29;52.71;100903.06;5095886;27;45409;-64
2022/05/25 06:09:56;;;;;;;;;3.67;3.33;;;;;16.32;52.50;100896.75;5096168;27;45442;-63
2022/05/25 06:12:22;;;;;;;;;3.00;3.00;;;;;16.40;53.37;100909.59;5094154;27;46462;-63
2022/05/25 06:14:47;;;;;;;;;4.00;2.67;;;;;16.40;52.96;100912.25;5095527;27;45533;-62
2022/05/25 06:19:56;;;;;;;;;5.00;3.00;;;;;16.35;52.65;100921.31;5095442;27;45415;-63
2022/05/25 06:22:22;;;;;;;;;3.67;3.67;;;;;16.34;52.21;100927.56;5095617;27;46075;-62
2022/05/25 06:24:52;;;;;;;;;3.00;3.00;;;;;16.29;52.33;100924.31;5094753;27;45442;-62
2022/05/25 06:27:20;;;;;;;;;5.33;5.00;;;;;16.38;52.93;100930.91;5095819;27;45492;-64
2022/05/25 06:29:47;;;;;;;;;4.33;4.33;;;;;16.42;52.33;100935.13;5095954;27;45544;-61
2022/05/25 06:32:15;;;;;;;;;4.00;4.00;;;;;16.45;53.16;100942.91;5095581;27;45388;-63
2022/05/25 06:34:41;;;;;;;;;3.67;3.67;;;;;16.44;52.69;100951.84;5095553;27;45371;-62
2022/05/25 06:37:12;;;;;;;;;2.00;2.00;;;;;16.43;52.13;100947.44;5095633;27;45356;-61
2022/05/25 06:39:37;;;;;;;;;4.67;3.67;;;;;16.47;52.72;100951.66;5095224;27;45613;-63
2022/05/25 06:42:04;;;;;;;;;6.33;3.33;;;;;16.49;51.79;100952.41;5093400;27;47074;-63
2022/05/25 06:44:30;;;;;;;;;5.67;5.00;;;;;16.44;51.80;100942.97;5095272;27;45397;-63
2022/05/25 06:46:55;;;;;;;;;5.00;5.00;;;;;16.53;51.83;100961.09;5093358;27;46203;-64
2022/05/25 06:49:21;;;;;;;;;5.00;4.00;;;;;16.59;52.21;100965.19;5095530;27;45439;-64
2022/05/25 06:51:46;;;;;;;;;5.00;5.00;;;;;16.63;51.94;100961.44;5095387;27;45506;-64
2022/05/25 06:54:16;;;;;;;;;5.00;5.00;;;;;16.72;51.39;100971.56;5095190;27;45498;-64
2022/05/25 06:56:42;;;;;;;;;4.00;4.00;;;;;16.77;51.77;100966.88;5095285;27;45355;-62
2022/05/25 06:59:08;;;;;;;;;3.00;3.00;;;;;16.87;51.00;100967.22;5094988;27;45389;-65
2022/05/25 07:01:35;;;;;;;;;3.00;3.00;;;;;16.90;51.44;100972.34;5094282;27;46284;-64
2022/05/25 07:04:00;;;;;;;;;3.67;3.67;;;;;16.92;51.31;100979.28;5095004;27;45442;-64
2022/05/25 07:06:26;;;;;;;;;3.67;3.67;;;;;16.98;50.71;100980.78;5093391;27;45729;-62
2022/05/25 07:08:52;;;;;;;;;4.67;4.00;;;;;17.00;50.55;100979.72;5095044;27;45399;-64
2022/05/25 07:11:19;;;;;;;;;5.33;4.67;;;;;17.06;50.37;100969.69;5094422;27;46313;-63
2022/05/25 07:13:45;;;;;;;;;4.33;2.00;;;;;17.04;49.16;100969.78;5094639;27;45449;-64
2022/05/25 07:16:16;;;;;;;;;0.67;0.67;;;;;17.03;49.24;100983.16;5093349;27;45483;-63
2022/05/25 07:18:43;;;;;;;;;4.00;2.00;;;;;17.02;48.67;100977.00;5094803;27;45400;-61
2022/05/25 07:21:12;;;;;;;;;2.00;2.00;;;;;17.01;49.19;100991.22;5094705;27;45413;-63
2022/05/25 07:23:40;;;;;;;;;2.00;2.00;;;;;17.00;49.42;100998.31;5094579;27;45467;-63
2022/05/25 07:26:07;;;;;;;;;1.00;1.00;;;;;16.97;48.37;100997.66;5094715;27;45406;-63
2022/05/25 07:28:34;;;;;;;;;1.67;1.67;;;;;16.97;48.61;100995.84;5094541;27;45516;-63
2022/05/25 07:31:10;;;;;;;;;2.00;2.00;;;;;17.04;47.89;101008.81;5094361;27;45403;-62
2022/05/25 07:33:39;;;;;;;;;2.33;2.33;;;;;17.08;48.27;101019.16;5094489;27;45348;-63
2022/05/25 07:36:06;;;;;;;;;1.67;1.67;;;;;17.09;48.69;101006.75;5096662;27;45383;-62
2022/05/25 07:38:31;;;;;;;;;1.00;1.00;;;;;17.10;47.32;101017.28;5098243;27;45462;-63
2022/05/25 07:40:59;;;;;;;;;2.00;2.00;;;;;17.12;47.85;101012.75;5096624;27;48236;-64
2022/05/25 07:43:29;;;;;;;;;3.00;2.00;;;;;17.11;47.54;101012.81;5098189;27;45546;-63
2022/05/25 07:45:54;;;;;;;;;1.00;1.00;;;;;17.12;47.86;101025.19;5098285;27;45477;-62
2022/05/25 07:48:20;;;;;;;;;1.00;1.00;;;;;17.07;47.52;101021.91;5098514;27;45543;-64
2022/05/25 07:50:45;;;;;;;;;3.00;2.00;;;;;17.10;47.71;101014.63;5098049;27;45457;-64
2022/05/25 07:56:03;;;;;;;;;1.33;0.00;;;;;17.16;47.36;101014.28;5098479;27;45449;-61
2022/05/25 07:58:32;;;;;;;;;9.33;8.33;;;;;17.17;47.28;101017.81;5097967;27;45445;-62
2022/05/25 08:01:03;;;;;;;;;6.33;5.00;;;;;17.19;47.40;101021.22;5097983;27;45455;-62
2022/05/25 08:06:13;;;;;;;;;1.67;1.67;;;;;17.19;47.36;101026.53;5098203;27;45393;-63
2022/05/25 08:08:39;;;;;;;;;1.00;1.00;;;;;17.22;47.86;101031.66;5097951;27;45493;-61
2022/05/25 08:11:08;;;;;;;;;2.00;2.00;;;;;17.21;47.63;101029.97;5097573;27;46063;-63
2022/05/25 08:13:36;;;;;;;;;2.00;1.00;;;;;17.27;47.53;101034.94;5097652;27;45367;-63
2022/05/25 08:16:03;;;;;;;;;2.00;2.00;;;;;17.30;48.20;101036.56;5097857;27;45403;-63
2022/05/25 08:18:28;;;;;;;;;2.00;1.00;;;;;17.39;47.23;101038.72;5097783;27;45393;-63
2022/05/25 08:20:53;;;;;;;;;1.00;1.00;;;;;17.40;47.55;101021.81;5097836;27;46051;-63
2022/05/25 08:23:19;;;;;;;;;1.00;1.00;;;;;17.39;46.78;101023.63;5097677;27;45519;-62
2022/05/25 08:25:45;;;;;;;;;2.33;2.33;;;;;17.44;46.89;101037.50;5097722;27;45400;-64
2022/05/25 08:28:11;;;;;;;;;1.00;1.00;;;;;17.48;47.17;101035.53;5097576;27;45422;-61
2022/05/25 08:30:39;;;;;;;;;0.00;0.00;;;;;17.41;46.62;101010.25;5097400;27;45474;-61
2022/05/25 08:33:05;;;;;;;;;0.33;0.33;;;;;17.51;47.05;101018.53;5097620;27;45492;-62
2022/05/25 08:35:31;;;;;;;;;1.67;1.00;;;;;17.55;47.19;101022.75;5097681;27;45416;-63
2022/05/25 08:37:59;;;;;;;;;2.00;2.00;;;;;17.58;46.85;101028.72;5097283;27;45454;-61
2022/05/25 08:40:27;;;;;;;;;0.33;0.33;;;;;17.60;47.17;101028.66;5097171;27;45403;-63
2022/05/25 08:43:12;;;;;;;;;0.00;0.00;;;;;17.61;45.99;101023.22;5096956;27;45400;-63
2022/05/25 08:45:44;;;;;;;;;1.00;0.00;;;;;17.60;45.66;101031.31;5097208;27;45490;-63
2022/05/25 08:48:13;;;;;;;;;2.00;0.33;;;;;17.61;46.10;101033.88;5095842;27;45418;-62
2022/05/25 08:50:40;;;;;;;;;2.00;1.00;;;;;17.57;45.09;101027.03;5096996;27;45982;-63
2022/05/25 08:53:10;;;;;;;;;0.67;0.67;;;;;17.53;44.97;101033.47;5097142;27;45489;-63
2022/05/25 08:55:54;;;;;;;;;1.00;0.00;;;;;17.56;45.32;101029.75;5097336;27;45398;-62
2022/05/25 08:58:23;;;;;;;;;0.67;0.67;;;;;17.57;44.99;101027.03;5095722;27;45381;-61
2022/05/25 09:00:52;;;;;;;;;1.33;0.00;;;;;17.64;44.99;101027.53;5096785;27;45490;-62
2022/05/25 09:03:30;;;;;;;;;1.67;1.67;;;;;17.70;43.86;101042.25;5096824;27;45414;-63
2022/05/25 09:06:25;;;;;;;;;0.00;0.00;;;;;17.71;43.64;101042.19;5097113;27;45331;-61
2022/05/25 09:09:11;;;;;;;;;0.00;0.00;;;;;17.74;42.82;101039.34;5077715;27;45634;-63
2022/05/25 09:11:48;;;;;;;;;0.67;0.00;;;;;17.75;43.02;101050.84;5095166;27;48245;-61
2022/05/25 09:14:20;;;;;;;;;0.00;0.00;;;;;17.75;43.57;101045.53;5096912;27;45472;-62
2022/05/25 09:16:49;;;;;;;;;0.00;0.00;;;;;17.79;42.77;101039.97;5097128;27;45320;-62
2022/05/25 09:19:19;;;;;;;;;2.00;0.00;;;;;17.87;42.62;101039.53;5097102;27;45624;-63
2022/05/25 09:22:03;;;;;;;;;0.00;0.00;;;;;17.85;42.20;101047.59;5096874;27;45409;-62
2022/05/25 09:24:31;;;;;;;;;0.67;0.00;;;;;17.87;41.12;101051.03;5096980;27;45399;-63
2022/05/25 09:26:59;;;;;;;;;0.00;0.00;;;;;17.88;40.00;101044.75;5097086;27;45496;-63
2022/05/25 09:29:25;;;;;;;;;0.00;0.00;;;;;17.91;41.13;101037.53;5096833;27;45521;-62
2022/05/25 09:31:50;;;;;;;;;0.00;0.00;;;;;17.93;40.60;101028.50;5096476;27;46544;-64
2022/05/25 09:34:53;;;;;;;;;0.00;0.00;;;;;17.98;40.50;101030.91;5096537;27;45462;-64
2022/05/25 09:37:34;;;;;;;;;0.00;0.00;;;;;18.00;40.84;101042.28;5096821;27;45454;-63
2022/05/25 09:40:10;;;;;;;;;0.00;0.00;;;;;17.99;39.59;101035.28;5096689;27;45576;-64
2022/05/25 09:42:37;;;;;;;;;0.00;0.00;;;;;17.98;39.75;101046.88;5096413;27;45727;-62
2022/05/25 09:45:13;;;;;;;;;0.00;0.00;;;;;17.99;38.56;101037.94;5096561;27;45463;-64
2022/05/25 09:47:42;;;;;;;;;0.00;0.00;;;;;18.00;39.11;101044.97;5096281;27;45544;-61
2022/05/25 09:50:34;;;;;;;;;0.00;0.00;;;;;18.01;38.92;101047.53;5096682;27;45657;-61
2022/05/25 09:53:11;;;;;;;;;0.00;0.00;;;;;18.02;39.38;101041.25;5095875;27;46290;-63
2022/05/25 09:55:52;;;;;;;;;0.00;0.00;;;;;18.05;39.40;101042.88;5096420;27;45501;-61
2022/05/25 09:58:26;;;;;;;;;0.00;0.00;;;;;18.08;39.97;101042.69;5095294;27;45467;-63
2022/05/25 10:00:59;;;;;;;;;1.00;1.00;;;;;18.13;40.31;101053.94;5096076;27;45397;-62
2022/05/25 10:03:36;;;;;;;;;0.00;0.00;;;;;18.12;40.22;101059.38;5095753;27;46356;-62
2022/05/25 10:06:25;;;;;;;;;0.00;0.00;;;;;18.18;40.50;101059.00;5096034;27;45513;-62
2022/05/25 10:09:15;;;;;;;;;1.00;1.00;;;;;18.25;40.47;101050.53;5096114;27;45439;-61
2022/05/25 10:11:54;;;;;;;;;0.33;0.33;;;;;18.30;40.75;101040.47;5095623;27;45497;-63
2022/05/25 10:14:22;;;;;;;;;4.00;4.00;;;;;18.33;40.61;101058.06;5095763;27;45843;-60
2022/05/25 10:16:49;;;;;;;;;0.00;0.00;;;;;18.35;39.87;101042.88;5095881;27;45295;-61
2022/05/25 10:19:17;;;;;;;;;0.00;0.00;;;;;18.37;39.51;101053.41;5095814;27;45462;-63
2022/05/25 10:22:00;;;;;;;;;0.33;0.33;;;;;18.39;39.21;101051.50;5095704;27;45442;-62
2022/05/25 10:24:39;;;;;;;;;2.00;0.67;;;;;18.45;39.97;101053.78;5093468;27;47232;-63
2022/05/25 10:27:18;;;;;;;;;0.33;0.33;;;;;18.49;39.95;101061.50;5095599;27;45490;-63
2022/05/25 10:38:34;;;;;;;;;0.33;0.33;;;;;18.60;38.86;101060.84;5094840;27;45572;-63
2022/05/25 10:41:37;;;;;;;;;0.00;0.00;;;;;18.66;39.63;101063.13;5095477;27;45557;-64
2022/05/25 10:44:01;;;;;;;;;1.00;1.00;;;;;18.66;39.52;101054.28;5094926;27;45393;-63
2022/05/25 10:46:30;;;;;;;;;2.67;1.00;;;;;18.71;38.53;101052.19;5094479;27;46087;-62
2022/05/25 10:49:20;;;;;;;;;0.67;0.67;;;;;18.73;39.12;101051.16;5094802;27;45524;-62
2022/05/25 10:51:50;;;;;;;;;1.00;1.00;;;;;18.77;39.36;101054.50;5093364;27;45422;-62
2022/05/25 10:54:45;;;;;;;;;1.33;1.33;;;;;18.84;39.73;101045.19;5094650;27;45394;-62
2022/05/25 10:57:22;;;;;;;;;1.33;1.33;;;;;18.90;40.00;101051.94;5093965;27;46266;-63
2022/05/25 10:59:48;;;;;;;;;0.00;0.00;;;;;18.94;39.42;101048.09;5094624;27;45419;-61
2022/05/25 11:02:38;;;;;;;;;1.00;1.00;;;;;18.95;38.36;101040.03;5094907;27;45396;-64
2022/05/25 11:05:32;;;;;;;;;2.00;1.00;;;;;18.97;38.81;101038.13;5094558;27;45441;-59
2022/05/25 11:08:09;;;;;;;;;1.00;1.00;;;;;19.01;38.41;101054.78;5094742;27;45481;-59
2022/05/25 11:10:52;;;;;;;;;0.00;0.00;;;;;19.03;38.97;101052.03;5097027;27;45572;-59
2022/05/25 11:13:38;;;;;;;;;2.33;2.33;;;;;19.07;39.39;101054.38;5098474;27;45502;-60
2022/05/25 11:16:40;;;;;;;;;29.67;29.00;;;;;19.15;39.26;101056.56;5098215;27;45436;-60
2022/05/25 11:19:15;;;;;;;;;16.67;15.33;;;;;19.23;38.43;101056.06;5097946;27;45433;-60
2022/05/25 11:21:48;;;;;;;;;2.00;2.00;;;;;19.28;38.62;101059.31;5098212;27;45422;-60
2022/05/25 11:24:13;;;;;;;;;1.00;1.00;;;;;19.32;38.14;101052.81;5098518;27;45438;-60
2022/05/25 11:27:17;;;;;;;;;1.00;1.00;;;;;19.29;38.00;101058.34;5097917;27;45429;-60
2022/05/25 11:30:08;;;;;;;;;1.33;1.33;;;;;19.31;37.86;101045.75;5088432;27;45503;-59
2022/05/25 11:32:45;;;;;;;;;0.00;0.00;;;;;19.35;37.38;101055.28;5096613;27;45458;-59
2022/05/25 11:35:40;;;;;;;;;0.33;0.33;;;;;19.38;37.56;101049.75;5096927;27;45463;-60
2022/05/25 11:38:05;;;;;;;;;2.00;1.00;;;;;19.41;37.44;101058.41;5097939;27;45332;-60
2022/05/25 11:40:33;;;;;;;;;0.33;0.33;;;;;19.49;37.89;101046.38;5097836;27;46480;-60
2022/05/25 11:43:08;;;;;;;;;63.67;50.67;;;;;19.54;37.50;101039.78;5097672;27;45485;-59
2022/05/25 11:45:52;;;;;;;;;0.33;0.33;;;;;19.60;37.14;101060.72;5097789;27;45399;-59
2022/05/25 11:48:35;;;;;;;;;1.00;1.00;;;;;19.59;37.23;101055.50;5097784;27;45371;-59
2022/05/25 11:51:03;;;;;;;;;1.00;1.00;;;;;19.66;37.60;101051.47;5097661;27;45446;-60
2022/05/25 11:53:41;;;;;;;;;0.00;0.00;;;;;19.64;35.92;101042.72;5096720;27;45414;-60
2022/05/25 11:56:19;;;;;;;;;1.00;1.00;;;;;19.68;37.00;101049.56;5096910;27;45442;-60
2022/05/25 11:59:25;;;;;;;;;1.00;1.00;;;;;19.73;37.06;101049.28;5098304;27;45552;-60
2022/05/25 12:01:58;;;;;;;;;0.00;0.00;;;;;19.81;36.49;101047.81;5097790;27;45825;-59
2022/05/25 12:04:41;;;;;;;;;1.00;1.00;;;;;19.88;36.69;101050.94;5097823;27;45565;-59
2022/05/25 12:07:13;;;;;;;;;1.00;1.00;;;;;19.93;36.40;101064.78;5096378;27;45481;-60
2022/05/25 12:09:54;;;;;;;;;0.00;0.00;;;;;19.95;36.16;101052.22;5097455;27;45340;-59